createdAt,value
2019-05-22T11:43:30.000Z,8.4
2019-05-22T11:43:32.000Z,8.2
2019-05-22T11:43:34.000Z,8.2
2019-05-22T11:43:36.000Z,8.1
2019-05-22T11:43:38.000Z,7.9
2019-05-22T11:43:40.000Z,7.8
2019-05-22T11:43:42.000Z,7.7
2019-05-22T11:43:44.000Z,7.4
2019-05-22T11:43:47.000Z,7.4
2019-05-22T11:43:49.000Z,7.3
2019-05-22T11:43:51.000Z,7.2
2019-05-22T11:43:53.000Z,7.1
2019-05-22T11:43:55.000Z,7.1
2019-05-22T11:43:57.000Z,7.1
2019-05-22T11:43:59.000Z,7.2
2019-05-22T11:44:01.000Z,7.3
2019-05-22T11:49:51.000Z,8.1
2019-05-22T11:49:53.000Z,8.2
2019-05-22T11:49:55.000Z,8.2
2019-05-22T11:49:57.000Z,8.1
2019-05-22T11:49:59.000Z,8.2
2019-05-22T11:50:01.000Z,8.2
2019-05-22T11:50:03.000Z,8.2
2019-05-22T11:50:05.000Z,8.3
2019-05-22T11:51:29.000Z,7.2
2019-05-22T11:51:31.000Z,7.3
2019-05-22T11:51:33.000Z,7.1
2019-05-22T11:51:35.000Z,7.0
2019-05-22T11:51:37.000Z,6.9
2019-05-22T11:51:39.000Z,6.8
2019-05-22T11:51:41.000Z,7.0
2019-05-22T11:51:43.000Z,7.1
2019-05-22T12:00:08.000Z,9.3
2019-05-22T12:00:10.000Z,9.4
2019-05-22T12:00:12.000Z,9.5
2019-05-22T12:00:14.000Z,9.5
2019-05-22T12:00:16.000Z,9.4
2019-05-22T12:00:18.000Z,9.4
2019-05-22T12:00:20.000Z,9.3
2019-05-22T12:00:22.000Z,9.4
2019-05-22T12:28:35.000Z,20.6
2019-05-22T12:28:37.000Z,20.8
2019-05-22T12:28:39.000Z,21.5
2019-05-22T12:28:41.000Z,21.7
2019-05-22T12:28:43.000Z,22.3
2019-05-22T12:28:45.000Z,22.4
2019-05-22T12:28:47.000Z,22.6
2019-05-22T12:28:49.000Z,22.7
2019-05-22T12:28:54.000Z,21.7
2019-05-22T12:28:56.000Z,21.9
2019-05-22T12:28:58.000Z,22.4
2019-05-22T12:29:00.000Z,22.2
2019-05-22T12:29:02.000Z,23.2
2019-05-22T12:29:04.000Z,23.0
2019-05-22T12:29:06.000Z,22.9
2019-05-22T12:29:08.000Z,22.2
2019-05-22T12:29:10.000Z,21.5
2019-05-22T12:29:12.000Z,21.3
2019-05-22T12:29:14.000Z,20.5
2019-05-22T12:29:16.000Z,20.4
2019-05-22T12:29:18.000Z,20.3
2019-05-22T12:29:20.000Z,19.8
2019-05-22T12:29:22.000Z,19.9
2019-05-22T12:29:24.000Z,19.7
2019-05-22T12:36:27.000Z,16.6
2019-05-22T12:36:29.000Z,16.4
2019-05-22T12:36:31.000Z,16.7
2019-05-22T12:36:33.000Z,16.5
2019-05-22T12:36:35.000Z,16.6
2019-05-22T12:36:37.000Z,16.6
2019-05-22T12:36:39.000Z,16.9
2019-05-22T12:36:41.000Z,17.2
2019-05-22T12:36:44.000Z,16.9
2019-05-22T12:36:46.000Z,16.9
2019-05-22T12:36:48.000Z,16.9
2019-05-22T12:36:50.000Z,17.5
2019-05-22T12:36:52.000Z,18.0
2019-05-22T12:36:54.000Z,17.8
2019-05-22T12:36:56.000Z,17.4
2019-05-22T12:36:58.000Z,17.2
2019-05-22T12:38:20.000Z,16.8
2019-05-22T12:38:22.000Z,16.3
2019-05-22T12:38:24.000Z,16.7
2019-05-22T12:38:26.000Z,17.5
2019-05-22T12:38:28.000Z,17.5
2019-05-22T12:38:30.000Z,17.5
2019-05-22T12:38:32.000Z,17.4
2019-05-22T12:38:34.000Z,17.3
2019-05-22T12:51:49.000Z,16.9
2019-05-22T12:51:51.000Z,16.9
2019-05-22T12:51:53.000Z,16.9
2019-05-22T12:51:55.000Z,17.1
2019-05-22T12:51:57.000Z,17.5
2019-05-22T12:51:59.000Z,17.4
2019-05-22T12:52:01.000Z,17.7
2019-05-22T12:52:03.000Z,17.3
2019-05-22T12:56:33.000Z,16.7
2019-05-22T12:56:35.000Z,16.8
2019-05-22T12:56:37.000Z,16.8
2019-05-22T12:56:39.000Z,17.0
2019-05-22T12:56:41.000Z,17.1
2019-05-22T12:56:43.000Z,17.0
2019-05-22T12:56:45.000Z,17.3
2019-05-22T12:56:47.000Z,16.8
2019-05-22T12:59:17.000Z,17.7
2019-05-22T12:59:19.000Z,17.8
2019-05-22T12:59:21.000Z,18.3
2019-05-22T12:59:23.000Z,18.2
2019-05-22T12:59:25.000Z,18.2
2019-05-22T12:59:27.000Z,17.4
2019-05-22T12:59:29.000Z,17.1
2019-05-22T12:59:31.000Z,17.1
2019-05-22T13:06:38.000Z,15.6
2019-05-22T13:06:40.000Z,15.7
2019-05-22T13:06:42.000Z,16.5
2019-05-22T13:06:44.000Z,16.7
2019-05-22T13:06:46.000Z,16.7
2019-05-22T13:06:48.000Z,16.4
2019-05-22T13:06:50.000Z,16.6
2019-05-22T13:06:52.000Z,15.9
2019-05-22T13:37:54.000Z,17.8
2019-05-22T13:37:56.000Z,17.4
2019-05-22T13:37:58.000Z,17.3
2019-05-22T13:38:00.000Z,17.4
2019-05-22T13:38:02.000Z,16.8
2019-05-22T13:38:04.000Z,17.0
2019-05-22T13:38:06.000Z,17.1
2019-05-22T13:38:08.000Z,17.4
2019-05-22T14:44:56.000Z,12.7
2019-05-22T14:44:58.000Z,12.7
2019-05-22T14:45:00.000Z,12.8
2019-05-22T14:45:02.000Z,13.0
2019-05-22T14:45:04.000Z,13.1
2019-05-22T14:45:06.000Z,13.3
2019-05-22T14:45:08.000Z,13.6
2019-05-22T14:45:10.000Z,13.8
2019-05-22T14:55:20.000Z,14.7
2019-05-22T14:55:22.000Z,15.0
2019-05-22T14:55:24.000Z,14.8
2019-05-22T14:55:26.000Z,14.7
2019-05-22T14:55:28.000Z,14.5
2019-05-22T14:55:30.000Z,14.3
2019-05-22T14:56:11.000Z,14.4
2019-05-22T14:56:13.000Z,14.6
2019-05-22T14:56:15.000Z,14.8
2019-05-22T14:56:17.000Z,14.7
2019-05-22T14:56:19.000Z,14.5
2019-05-22T14:56:21.000Z,14.6
2019-05-22T14:56:23.000Z,14.2
2019-05-22T14:56:25.000Z,14.3
2019-05-22T14:56:27.000Z,14.1
2019-05-22T14:56:29.000Z,13.7
2019-05-22T14:56:31.000Z,14.2
2019-05-22T14:56:33.000Z,14.2
2019-05-22T14:56:35.000Z,14.3
2019-05-22T14:56:37.000Z,14.4
2019-05-22T14:56:39.000Z,13.9
2019-05-22T14:56:41.000Z,13.8
2019-05-22T14:56:44.000Z,14.0
2019-05-22T14:56:46.000Z,14.4
2019-05-22T14:56:48.000Z,14.1
2019-05-22T14:56:50.000Z,13.8
2019-05-22T14:56:52.000Z,13.9
2019-05-22T14:56:54.000Z,14.0
2019-05-22T14:56:56.000Z,14.0
2019-05-22T14:56:58.000Z,14.2
2019-05-22T14:57:00.000Z,14.5
2019-05-22T14:57:02.000Z,14.7
2019-05-22T14:57:04.000Z,14.7
2019-05-22T14:57:06.000Z,14.5
2019-05-22T14:57:08.000Z,14.5
2019-05-22T14:57:10.000Z,14.8
2019-05-22T14:57:12.000Z,15.0
2019-05-22T14:57:14.000Z,14.8
2019-05-22T14:57:17.000Z,14.5
2019-05-22T14:57:19.000Z,14.9
2019-05-22T14:57:21.000Z,15.2
2019-05-22T14:57:23.000Z,15.0
2019-05-22T14:57:25.000Z,15.2
2019-05-22T14:57:27.000Z,15.3
2019-05-22T14:57:29.000Z,15.1
2019-05-22T14:57:31.000Z,14.2
2019-05-22T14:57:33.000Z,14.3
2019-05-22T14:57:35.000Z,14.5
2019-05-22T14:57:37.000Z,14.1
2019-05-22T14:57:39.000Z,14.4
2019-05-22T14:57:41.000Z,14.1
2019-05-22T14:57:43.000Z,13.9
2019-05-22T14:57:45.000Z,14.1
2019-05-22T14:57:47.000Z,14.0
2019-05-22T14:57:50.000Z,13.7
2019-05-22T14:57:52.000Z,13.8
2019-05-22T14:57:54.000Z,13.6
2019-05-22T14:57:56.000Z,13.7
2019-05-22T14:57:58.000Z,13.7
2019-05-22T14:58:00.000Z,13.7
2019-05-22T14:58:02.000Z,13.7
2019-05-22T14:58:04.000Z,13.7
2019-05-22T14:58:06.000Z,13.7
2019-05-22T14:58:08.000Z,13.8
2019-05-22T14:58:10.000Z,13.8
2019-05-22T14:58:12.000Z,13.8
2019-05-22T14:58:14.000Z,13.8
2019-05-22T14:58:16.000Z,13.9
2019-05-22T14:58:18.000Z,14.0
2019-05-22T14:58:20.000Z,14.2
2019-05-22T14:58:23.000Z,14.1
2019-05-22T14:58:25.000Z,14.0
2019-05-22T14:58:27.000Z,14.1
2019-05-22T14:58:29.000Z,13.9
2019-05-22T14:58:31.000Z,14.1
2019-05-22T14:58:33.000Z,14.1
2019-05-22T14:58:35.000Z,13.8
2019-05-22T14:58:37.000Z,14.1
2019-05-22T14:58:39.000Z,14.6
2019-05-22T14:58:41.000Z,14.7
2019-05-22T14:58:43.000Z,14.9
2019-05-22T14:58:45.000Z,14.9
2019-05-22T14:58:47.000Z,14.5
2019-05-22T14:58:49.000Z,14.6
2019-05-22T14:58:51.000Z,14.7
2019-05-22T14:58:53.000Z,15.0
2019-05-22T14:58:56.000Z,15.2
2019-05-22T14:58:58.000Z,14.9
2019-05-22T14:59:00.000Z,14.4
2019-05-22T14:59:02.000Z,14.4
2019-05-22T14:59:04.000Z,14.5
2019-05-22T14:59:06.000Z,14.7
2019-05-22T14:59:08.000Z,14.2
2019-05-22T14:59:10.000Z,14.0
2019-05-22T14:59:12.000Z,13.8
2019-05-22T14:59:14.000Z,13.6
2019-05-22T14:59:16.000Z,13.2
2019-05-22T14:59:18.000Z,13.5
2019-05-22T14:59:20.000Z,13.1
2019-05-22T14:59:22.000Z,13.5
2019-05-22T14:59:24.000Z,13.3
2019-05-22T14:59:26.000Z,13.3
2019-05-22T14:59:29.000Z,14.3
2019-05-22T14:59:31.000Z,14.2
2019-05-22T14:59:33.000Z,14.2
2019-05-22T14:59:35.000Z,13.8
2019-05-22T14:59:37.000Z,14.1
2019-05-22T14:59:39.000Z,14.1
2019-05-22T14:59:41.000Z,14.1
2019-05-22T14:59:43.000Z,14.6
2019-05-22T14:59:45.000Z,14.7
2019-05-22T14:59:47.000Z,14.9
2019-05-22T14:59:49.000Z,15.2
2019-05-22T14:59:51.000Z,14.9
2019-05-22T14:59:53.000Z,15.0
2019-05-22T14:59:55.000Z,14.6
2019-05-22T14:59:57.000Z,14.8
2019-05-22T14:59:59.000Z,13.8
